Time;durP1;ratioP1;P1;durP2;ratioP2;P2;SDS_P1;SDS_P2;PMS_P1;PMS_P2;Temp;Humidity;BMP_temperature;BMP_pressure;BME280_temperature;BME280_humidity;BME280_pressure;Samples;Min_cycle;Max_cycle;Signal;HPM_P1;HPM_P2
2022/08/08 00:02:24;;;;;;;0.40;0.40;;;18.20;43.40;;;;;;4923514;28;20031;-71
2022/08/08 00:05:00;;;;;;;0.93;0.40;;;18.20;43.50;;;;;;4932867;28;20050;-69
2022/08/08 00:07:36;;;;;;;0.40;0.20;;;18.10;43.80;;;;;;4948097;28;20126;-71
2022/08/08 00:10:24;;;;;;;0.75;0.50;;;18.10;43.70;;;;;;4939965;28;20436;-69
2022/08/08 00:13:09;;;;;;;1.42;0.68;;;18.00;43.80;;;;;;4916400;28;20574;-69
2022/08/08 00:15:42;;;;;;;2.58;0.50;;;18.00;44.20;;;;;;4935138;28;20039;-69
2022/08/08 00:18:22;;;;;;;0.45;0.22;;;18.00;44.10;;;;;;4911598;28;20035;-70
2022/08/08 00:20:55;;;;;;;0.85;0.30;;;17.90;44.10;;;;;;4922325;28;20047;-70
2022/08/08 00:23:33;;;;;;;1.73;0.43;;;17.90;44.20;;;;;;4940493;28;21454;-72
2022/08/08 00:26:00;;;;;;;0.20;0.20;;;17.90;44.50;;;;;;4918462;28;20042;-70
2022/08/08 00:28:28;;;;;;;1.15;0.52;;;17.80;44.30;;;;;;4919482;28;20051;-72
2022/08/08 00:30:54;;;;;;;1.60;0.35;;;17.80;44.40;;;;;;4933551;28;20031;-71
2022/08/08 00:33:23;;;;;;;0.35;0.35;;;17.80;44.50;;;;;;4926019;28;20113;-70
2022/08/08 00:35:50;;;;;;;0.85;0.40;;;17.70;44.60;;;;;;4947458;28;20559;-70
2022/08/08 00:38:41;;;;;;;1.55;0.40;;;17.70;44.70;;;;;;4990084;28;20037;-69
2022/08/08 00:41:18;;;;;;;1.05;0.55;;;17.70;45.20;;;;;;4993247;28;20048;-72
2022/08/08 00:44:06;;;;;;;0.98;0.50;;;17.60;45.00;;;;;;5013480;28;20136;-71
2022/08/08 00:47:02;;;;;;;4.00;0.40;;;17.60;45.10;;;;;;5013832;28;20119;-71
2022/08/08 00:49:39;;;;;;;0.38;0.30;;;17.50;45.30;;;;;;5004905;28;20095;-70
2022/08/08 00:52:08;;;;;;;0.82;0.30;;;17.50;45.20;;;;;;5016954;28;20052;-71
2022/08/08 00:54:58;;;;;;;0.85;0.30;;;17.50;45.30;;;;;;5024268;28;20449;-71
2022/08/08 00:57:45;;;;;;;0.30;0.30;;;17.50;45.70;;;;;;5024836;28;20522;-70
2022/08/08 01:00:15;;;;;;;0.45;0.30;;;17.40;45.40;;;;;;5002570;28;20213;-70
2022/08/08 01:02:59;;;;;;;0.85;0.40;;;17.40;45.40;;;;;;4993189;28;20044;-73
2022/08/08 01:05:57;;;;;;;0.52;0.32;;;17.40;45.80;;;;;;4993333;28;20084;-70
2022/08/08 01:08:59;;;;;;;0.57;0.28;;;17.30;46.00;;;;;;4965734;28;20037;-71
2022/08/08 01:11:49;;;;;;;1.50;0.45;;;17.30;46.00;;;;;;5007838;28;20437;-70
2022/08/08 01:14:27;;;;;;;0.55;0.20;;;17.20;45.80;;;;;;4978196;28;20029;-72
2022/08/08 01:17:11;;;;;;;0.30;0.30;;;17.20;45.80;;;;;;4986989;28;20123;-72
2022/08/08 01:19:54;;;;;;;2.13;0.30;;;17.10;46.10;;;;;;4987894;28;20076;-71
2022/08/08 01:22:50;;;;;;;0.32;0.20;;;17.10;46.10;;;;;;4974881;28;20058;-70
2022/08/08 01:25:40;;;;;;;3.50;0.30;;;17.10;46.20;;;;;;4993941;28;20167;-71
2022/08/08 01:28:27;;;;;;;0.57;0.50;;;17.00;46.30;;;;;;4980798;28;20482;-70
2022/08/08 01:31:19;;;;;;;1.95;0.47;;;17.00;46.20;;;;;;4986349;28;20092;-71
2022/08/08 01:34:24;;;;;;;0.35;0.35;;;16.90;46.40;;;;;;5015624;28;20037;-70
2022/08/08 01:36:57;;;;;;;0.52;0.30;;;16.90;46.40;;;;;;4990992;28;20046;-71
2022/08/08 01:39:49;;;;;;;1.85;0.43;;;16.80;46.20;;;;;;4996812;28;20029;-70
2022/08/08 01:42:35;;;;;;;3.00;0.40;;;16.80;46.50;;;;;;4971673;28;20548;-71
2022/08/08 01:45:37;;;;;;;1.35;0.38;;;16.70;46.50;;;;;;4997800;28;20041;-70
2022/08/08 01:48:37;;;;;;;0.30;0.30;;;16.70;46.90;;;;;;5001777;28;20064;-70
2022/08/08 01:51:11;;;;;;;0.45;0.35;;;16.60;46.90;;;;;;5006639;28;20033;-70
2022/08/08 01:54:01;;;;;;;0.88;0.40;;;16.60;46.70;;;;;;5006970;28;20025;-71
2022/08/08 01:56:43;;;;;;;1.73;0.30;;;16.60;47.70;;;;;;4959627;28;20038;-70
2022/08/08 01:59:17;;;;;;;2.17;0.43;;;16.50;47.10;;;;;;4972091;28;20091;-70
2022/08/08 02:01:48;;;;;;;1.63;0.50;;;16.50;47.10;;;;;;4984646;28;20078;-71
2022/08/08 02:04:42;;;;;;;1.60;0.40;;;16.50;47.00;;;;;;4993113;28;20028;-70
2022/08/08 02:07:18;;;;;;;1.33;0.50;;;16.40;47.20;;;;;;4993302;28;20607;-71
2022/08/08 02:10:05;;;;;;;0.30;0.30;;;16.40;47.10;;;;;;4984477;28;20112;-71
2022/08/08 02:12:42;;;;;;;0.57;0.40;;;16.30;47.50;;;;;;5018946;28;20113;-70
2022/08/08 02:15:14;;;;;;;0.52;0.40;;;16.30;47.40;;;;;;5004260;28;20033;-69
2022/08/08 02:17:47;;;;;;;0.63;0.30;;;16.30;47.50;;;;;;4964405;28;20522;-70
2022/08/08 02:20:22;;;;;;;1.33;0.40;;;16.20;47.70;;;;;;4953735;28;20041;-71
2022/08/08 02:23:32;;;;;;;0.45;0.40;;;16.20;47.80;;;;;;4965108;28;20040;-69
2022/08/08 02:26:06;;;;;;;3.22;0.35;;;16.20;47.90;;;;;;4945764;28;20600;-71
2022/08/08 02:28:52;;;;;;;0.35;0.32;;;16.20;47.80;;;;;;4955783;28;20040;-71
2022/08/08 02:31:45;;;;;;;0.52;0.30;;;16.10;48.10;;;;;;4924084;28;20027;-70
2022/08/08 02:34:18;;;;;;;2.45;0.20;;;16.10;48.10;;;;;;4975991;28;20108;-71
2022/08/08 02:37:21;;;;;;;1.20;0.50;;;16.00;48.10;;;;;;4923454;28;20050;-70
2022/08/08 02:40:11;;;;;;;1.38;0.63;;;16.00;48.50;;;;;;4969245;28;20130;-71
2022/08/08 02:43:00;;;;;;;1.90;0.35;;;16.00;48.50;;;;;;4968242;28;20093;-70
2022/08/08 02:46:08;;;;;;;0.35;0.28;;;15.90;48.20;;;;;;4954217;28;20066;-71
2022/08/08 02:48:52;;;;;;;1.95;0.28;;;15.90;48.60;;;;;;4953283;28;20117;-71
2022/08/08 02:51:47;;;;;;;0.28;0.22;;;15.90;48.70;;;;;;4949081;28;20763;-69
2022/08/08 02:54:51;;;;;;;0.20;0.20;;;15.90;48.90;;;;;;4947249;28;20101;-70
2022/08/08 02:57:21;;;;;;;0.43;0.40;;;15.80;48.90;;;;;;4980347;28;20111;-70
2022/08/08 02:59:52;;;;;;;0.35;0.20;;;15.80;48.50;;;;;;5000808;28;20124;-72
2022/08/08 03:02:58;;;;;;;0.88;0.38;;;15.80;48.70;;;;;;4992431;28;20088;-71
2022/08/08 03:06:01;;;;;;;1.75;0.50;;;15.70;48.80;;;;;;4957224;28;20050;-71
2022/08/08 03:08:40;;;;;;;0.30;0.30;;;15.70;49.10;;;;;;4959227;28;20045;-70
2022/08/08 03:11:18;;;;;;;0.45;0.38;;;15.70;49.00;;;;;;5005877;28;20116;-71
2022/08/08 03:14:05;;;;;;;1.52;0.30;;;15.70;49.00;;;;;;5002471;28;20049;-70
2022/08/08 03:16:54;;;;;;;1.25;0.35;;;15.60;49.40;;;;;;4977304;28;20034;-71
2022/08/08 03:19:56;;;;;;;1.55;0.40;;;15.60;49.30;;;;;;4976187;28;20052;-70
2022/08/08 03:22:22;;;;;;;0.68;0.50;;;15.60;49.60;;;;;;4995556;28;20043;-70
2022/08/08 03:24:50;;;;;;;0.45;0.45;;;15.50;49.20;;;;;;5000055;28;20049;-71
2022/08/08 03:27:23;;;;;;;0.95;0.40;;;15.50;49.50;;;;;;4988497;28;20221;-70
2022/08/08 03:29:52;;;;;;;0.30;0.30;;;15.50;49.50;;;;;;4978041;28;20045;-70
2022/08/08 03:35:04;;;;;;;0.40;0.38;;;15.40;49.70;;;;;;4982214;28;20044;-69
2022/08/08 03:37:29;;;;;;;0.82;0.40;;;15.40;49.70;;;;;;4997201;28;20026;-70
2022/08/08 03:39:55;;;;;;;0.40;0.30;;;15.40;49.90;;;;;;4990896;28;20537;-70
2022/08/08 03:42:20;;;;;;;0.50;0.40;;;15.40;49.90;;;;;;4990169;28;20049;-70
2022/08/08 03:44:46;;;;;;;0.65;0.40;;;15.30;50.00;;;;;;5014551;28;20045;-70
2022/08/08 03:47:11;;;;;;;1.92;0.50;;;15.30;50.10;;;;;;4994065;28;20029;-69
2022/08/08 03:49:37;;;;;;;1.85;0.30;;;15.30;50.00;;;;;;4969191;28;20147;-69
2022/08/08 03:52:03;;;;;;;1.10;0.40;;;15.20;50.10;;;;;;4969081;28;20033;-70
2022/08/08 03:54:28;;;;;;;1.08;0.50;;;15.20;50.30;;;;;;4995659;28;20384;-70
2022/08/08 03:56:54;;;;;;;0.73;0.57;;;15.20;50.40;;;;;;4994454;28;20600;-70
2022/08/08 03:59:19;;;;;;;1.10;0.40;;;15.10;50.50;;;;;;4983499;28;20603;-70
2022/08/08 04:01:45;;;;;;;0.77;0.40;;;15.10;50.50;;;;;;5000295;28;20125;-70
2022/08/08 04:04:11;;;;;;;0.70;0.40;;;15.10;50.60;;;;;;4985205;28;20030;-71
2022/08/08 04:06:37;;;;;;;0.40;0.40;;;15.10;50.60;;;;;;4989542;28;20046;-70
2022/08/08 04:09:05;;;;;;;1.77;0.40;;;15.00;50.80;;;;;;4992640;28;20084;-71
2022/08/08 04:11:31;;;;;;;0.50;0.45;;;15.00;50.90;;;;;;4954549;28;20032;-71
2022/08/08 04:13:57;;;;;;;0.70;0.47;;;15.00;50.90;;;;;;4980193;28;20498;-69
2022/08/08 04:16:22;;;;;;;2.45;0.60;;;15.00;51.00;;;;;;4965634;28;20029;-68
2022/08/08 04:18:48;;;;;;;1.17;0.38;;;15.00;51.00;;;;;;4981516;28;20053;-69
2022/08/08 04:21:14;;;;;;;0.73;0.50;;;14.90;51.10;;;;;;4969032;28;20030;-70
2022/08/08 04:23:40;;;;;;;0.52;0.30;;;14.90;51.10;;;;;;4978219;28;20033;-70
2022/08/08 04:26:06;;;;;;;2.58;0.40;;;14.90;51.30;;;;;;4968601;28;20049;-70
2022/08/08 04:28:31;;;;;;;0.52;0.40;;;14.90;51.40;;;;;;4987108;28;20178;-70
2022/08/08 04:30:57;;;;;;;0.38;0.38;;;14.90;51.40;;;;;;4976053;28;20034;-70
2022/08/08 04:33:22;;;;;;;2.17;0.40;;;14.90;51.50;;;;;;4981476;28;20034;-70
2022/08/08 04:35:48;;;;;;;0.40;0.40;;;14.80;51.60;;;;;;4989012;28;20376;-69
2022/08/08 04:38:13;;;;;;;1.52;0.70;;;14.80;52.20;;;;;;4990248;28;20560;-70
2022/08/08 04:40:39;;;;;;;0.52;0.47;;;14.80;51.70;;;;;;4970194;28;20115;-69
2022/08/08 04:43:05;;;;;;;1.08;0.50;;;14.80;51.80;;;;;;4960786;28;20037;-69
2022/08/08 04:45:31;;;;;;;0.93;0.50;;;14.80;51.90;;;;;;4977199;28;20049;-70
2022/08/08 04:47:57;;;;;;;0.40;0.30;;;14.80;51.90;;;;;;4967162;28;20148;-69
2022/08/08 04:50:23;;;;;;;1.85;0.40;;;14.80;51.90;;;;;;4961048;28;20502;-70
2022/08/08 04:52:49;;;;;;;1.38;0.50;;;14.80;52.10;;;;;;4978536;28;20053;-69
2022/08/08 04:55:14;;;;;;;5.85;0.57;;;14.80;52.20;;;;;;4983153;28;20033;-70
2022/08/08 04:57:40;;;;;;;3.95;0.40;;;14.70;52.30;;;;;;4997219;28;20628;-70
2022/08/08 05:00:06;;;;;;;0.90;0.30;;;14.70;52.30;;;;;;5004947;28;20709;-69
2022/08/08 05:02:32;;;;;;;2.05;0.40;;;14.70;52.30;;;;;;5003695;28;20052;-70
2022/08/08 05:04:58;;;;;;;0.60;0.60;;;14.70;52.30;;;;;;5022266;28;20033;-71
2022/08/08 05:07:23;;;;;;;0.38;0.35;;;14.70;52.40;;;;;;5022904;28;20053;-70
2022/08/08 05:09:49;;;;;;;1.60;0.75;;;14.70;52.40;;;;;;4996494;28;20064;-70
2022/08/08 05:12:14;;;;;;;0.38;0.38;;;14.70;52.50;;;;;;5028919;28;20058;-69
2022/08/08 05:14:40;;;;;;;0.38;0.38;;;14.70;52.50;;;;;;4976105;28;20044;-69
2022/08/08 05:17:06;;;;;;;0.40;0.40;;;14.70;52.60;;;;;;4993654;28;20034;-70
2022/08/08 05:19:34;;;;;;;0.60;0.45;;;14.80;52.80;;;;;;4982280;28;20072;-69
2022/08/08 05:22:00;;;;;;;1.83;0.40;;;14.80;52.70;;;;;;4994687;28;20778;-69
2022/08/08 05:24:25;;;;;;;0.80;0.43;;;14.80;52.80;;;;;;4986442;28;20042;-72
2022/08/08 05:26:51;;;;;;;1.50;0.63;;;14.80;52.90;;;;;;4967601;28;20513;-71
2022/08/08 05:29:16;;;;;;;2.05;0.55;;;14.80;52.80;;;;;;4992945;28;20128;-70
2022/08/08 05:31:42;;;;;;;0.65;0.57;;;14.90;53.00;;;;;;4987866;28;20037;-71
2022/08/08 05:34:22;;;;;;;2.25;0.60;;;14.90;53.10;;;;;;5016348;28;20074;-69
2022/08/08 05:36:47;;;;;;;2.15;0.43;;;14.90;53.20;;;;;;5001355;28;20048;-69
2022/08/08 05:39:13;;;;;;;0.90;0.40;;;14.90;53.20;;;;;;5017345;28;20037;-69
2022/08/08 05:41:38;;;;;;;2.80;1.20;;;15.00;53.30;;;;;;5001210;28;20060;-70
2022/08/08 05:44:13;;;;;;;1.67;0.60;;;15.00;53.40;;;;;;4991059;28;20029;-70
2022/08/08 05:46:39;;;;;;;2.72;0.40;;;15.10;53.90;;;;;;4989139;28;20266;-69
2022/08/08 05:49:06;;;;;;;0.77;0.50;;;15.20;53.70;;;;;;4964016;28;20034;-69
2022/08/08 05:51:31;;;;;;;3.33;0.70;;;15.20;53.70;;;;;;5009919;28;20502;-70
2022/08/08 05:53:57;;;;;;;3.38;0.90;;;15.30;53.90;;;;;;5003277;28;20084;-70
2022/08/08 05:56:22;;;;;;;12.07;0.85;;;15.30;53.80;;;;;;5002673;28;20056;-69
2022/08/08 05:59:05;;;;;;;1.38;0.70;;;15.40;54.00;;;;;;4991701;28;20112;-70
2022/08/08 06:01:31;;;;;;;6.15;0.82;;;15.50;54.10;;;;;;5009747;28;20067;-70
2022/08/08 06:04:00;;;;;;;6.28;0.85;;;15.60;54.10;;;;;;4965354;28;20042;-71
2022/08/08 06:06:27;;;;;;;3.67;1.05;;;15.70;54.00;;;;;;4994820;28;20041;-69
2022/08/08 06:08:53;;;;;;;3.85;0.90;;;15.80;54.00;;;;;;4989767;28;20518;-69
2022/08/08 06:11:18;;;;;;;4.65;0.70;;;15.80;53.90;;;;;;4983817;28;20053;-71
2022/08/08 06:13:46;;;;;;;4.57;0.70;;;15.90;53.90;;;;;;4989273;28;20041;-69
2022/08/08 06:16:12;;;;;;;1.38;0.50;;;16.00;54.00;;;;;;4963262;28;20533;-69
2022/08/08 06:18:38;;;;;;;2.38;0.70;;;16.10;53.80;;;;;;4992813;28;20037;-70
2022/08/08 06:21:03;;;;;;;1.30;0.60;;;16.30;53.60;;;;;;4997396;28;20030;-69
2022/08/08 06:23:29;;;;;;;1.10;0.60;;;16.40;53.30;;;;;;5000317;28;20034;-70
2022/08/08 06:26:05;;;;;;;1.40;0.60;;;16.60;53.80;;;;;;4997909;28;20029;-70
2022/08/08 06:28:32;;;;;;;1.58;0.50;;;16.70;52.70;;;;;;4984677;28;20045;-71
2022/08/08 06:31:02;;;;;;;2.80;0.65;;;16.80;52.40;;;;;;4984664;28;20109;-69
2022/08/08 06:33:57;;;;;;;2.55;0.47;;;17.00;52.10;;;;;;5012458;28;20048;-70
2022/08/08 06:36:38;;;;;;;1.45;0.60;;;17.20;51.80;;;;;;4984886;28;20041;-69
2022/08/08 06:39:04;;;;;;;5.30;0.70;;;17.30;51.50;;;;;;4961779;28;20034;-70
2022/08/08 06:41:33;;;;;;;4.13;0.90;;;17.50;51.30;;;;;;4998725;28;20128;-70
2022/08/08 06:44:01;;;;;;;4.50;0.65;;;17.60;51.10;;;;;;4975968;28;20152;-69
2022/08/08 06:46:27;;;;;;;5.68;0.70;;;17.80;50.90;;;;;;4973198;28;20061;-70
2022/08/08 06:48:53;;;;;;;4.13;0.88;;;17.90;50.60;;;;;;4989192;28;20061;-70
2022/08/08 06:51:19;;;;;;;2.15;0.50;;;18.00;50.40;;;;;;4981609;28;20053;-70
2022/08/08 06:53:45;;;;;;;2.40;0.93;;;18.20;50.20;;;;;;4983577;28;20095;-70
2022/08/08 06:56:10;;;;;;;3.80;0.65;;;18.40;50.00;;;;;;5001979;28;20049;-70
2022/08/08 06:58:36;;;;;;;1.40;0.68;;;18.50;49.80;;;;;;4989649;28;20037;-70
2022/08/08 07:01:02;;;;;;;0.52;0.40;;;18.70;49.50;;;;;;4981171;28;20032;-70
2022/08/08 07:03:51;;;;;;;5.85;0.85;;;18.90;49.30;;;;;;4968878;28;20445;-70
2022/08/08 07:06:23;;;;;;;1.13;0.60;;;19.00;48.90;;;;;;4998226;28;20120;-70
2022/08/08 07:08:56;;;;;;;2.55;0.60;;;19.20;48.80;;;;;;4987624;28;20053;-70
2022/08/08 07:11:21;;;;;;;2.50;0.63;;;19.40;48.60;;;;;;4980148;28;20042;-71
2022/08/08 07:13:53;;;;;;;4.78;0.90;;;19.60;48.40;;;;;;4992066;28;20030;-70
2022/08/08 07:16:26;;;;;;;3.35;0.60;;;19.80;48.00;;;;;;4981429;28;20421;-70
2022/08/08 07:19:16;;;;;;;5.25;0.77;;;20.00;47.70;;;;;;4954029;28;20092;-70
2022/08/08 07:21:49;;;;;;;3.42;0.57;;;20.20;47.40;;;;;;5008693;28;20449;-70
2022/08/08 07:24:28;;;;;;;2.33;0.57;;;20.40;47.00;;;;;;5000515;28;20125;-70
2022/08/08 07:26:54;;;;;;;1.15;0.50;;;20.60;46.60;;;;;;4985828;28;20041;-71
2022/08/08 07:29:22;;;;;;;1.92;0.43;;;20.80;46.50;;;;;;5013030;28;20037;-70
2022/08/08 07:31:48;;;;;;;1.15;0.50;;;21.00;46.20;;;;;;5017962;28;20030;-70
2022/08/08 07:34:13;;;;;;;5.22;0.70;;;21.20;45.90;;;;;;4998063;28;20098;-71
2022/08/08 07:36:39;;;;;;;3.33;0.65;;;21.30;45.60;;;;;;5002030;28;20083;-70
2022/08/08 07:39:05;;;;;;;5.25;1.00;;;21.50;45.30;;;;;;4988216;28;20030;-70
2022/08/08 07:41:31;;;;;;;2.05;0.70;;;21.70;45.00;;;;;;5006216;28;20545;-70
2022/08/08 07:43:57;;;;;;;1.67;0.60;;;21.90;44.70;;;;;;5021811;28;20073;-72
2022/08/08 07:46:23;;;;;;;1.50;0.50;;;22.10;44.40;;;;;;4990542;28;20045;-71
2022/08/08 07:48:48;;;;;;;4.00;0.90;;;22.30;44.00;;;;;;4975691;28;20103;-70
2022/08/08 07:51:14;;;;;;;1.48;0.50;;;22.50;43.80;;;;;;4995917;28;20037;-70
2022/08/08 07:53:44;;;;;;;1.77;0.70;;;22.70;43.50;;;;;;4991225;28;20041;-71
2022/08/08 07:56:10;;;;;;;2.42;0.52;;;22.90;43.20;;;;;;4993005;28;20033;-70
2022/08/08 07:58:39;;;;;;;1.75;0.50;;;23.10;42.90;;;;;;5017902;28;20030;-71
2022/08/08 08:01:16;;;;;;;1.38;0.40;;;23.20;42.60;;;;;;4962681;28;20034;-70
2022/08/08 08:03:45;;;;;;;2.40;0.60;;;23.40;42.40;;;;;;4985877;28;20522;-71
2022/08/08 08:06:11;;;;;;;1.80;0.65;;;23.60;42.10;;;;;;4996310;28;20042;-71
2022/08/08 08:08:39;;;;;;;3.88;0.80;;;23.80;41.80;;;;;;4979634;28;20093;-70
2022/08/08 08:11:10;;;;;;;3.65;0.60;;;24.00;41.60;;;;;;5006033;28;20025;-71
2022/08/08 08:13:51;;;;;;;2.58;0.60;;;24.20;40.90;;;;;;4987473;28;20113;-71
2022/08/08 08:16:22;;;;;;;1.45;0.50;;;24.40;41.00;;;;;;5011259;28;20112;-71
2022/08/08 08:18:52;;;;;;;3.70;0.60;;;24.50;40.70;;;;;;4999296;28;20112;-70
2022/08/08 08:21:18;;;;;;;0.83;0.43;;;24.80;40.50;;;;;;4975244;28;20037;-71
2022/08/08 08:23:44;;;;;;;1.20;0.40;;;25.00;40.30;;;;;;5010484;28;20033;-71
2022/08/08 08:26:12;;;;;;;2.00;0.70;;;25.10;40.00;;;;;;4978599;28;20061;-71
2022/08/08 08:28:38;;;;;;;2.85;0.77;;;25.30;39.70;;;;;;5002846;28;20042;-71
2022/08/08 08:31:04;;;;;;;2.65;0.40;;;25.60;39.50;;;;;;4994227;28;20045;-72
2022/08/08 08:33:30;;;;;;;1.17;0.50;;;25.70;39.30;;;;;;4976250;28;20084;-70
2022/08/08 08:35:56;;;;;;;1.33;0.40;;;25.90;39.00;;;;;;4975986;28;20129;-70
2022/08/08 08:38:22;;;;;;;0.35;0.35;;;26.20;38.70;;;;;;4996863;28;20155;-72
2022/08/08 08:40:47;;;;;;;2.42;0.43;;;26.40;38.40;;;;;;4990387;28;20045;-71
2022/08/08 08:43:13;;;;;;;0.65;0.50;;;26.60;38.10;;;;;;4985001;28;20116;-70
2022/08/08 08:45:39;;;;;;;4.10;0.60;;;26.80;37.80;;;;;;4988856;28;20914;-70
2022/08/08 08:48:04;;;;;;;3.40;0.65;;;27.00;37.50;;;;;;4979169;28;20033;-71
2022/08/08 08:50:30;;;;;;;1.73;0.40;;;27.20;37.20;;;;;;4987063;28;20045;-70
2022/08/08 08:52:56;;;;;;;1.75;0.55;;;27.40;36.80;;;;;;4999555;28;20067;-72
2022/08/08 08:55:22;;;;;;;3.25;0.50;;;27.50;36.40;;;;;;5014080;28;20048;-71
2022/08/08 08:57:48;;;;;;;3.08;0.68;;;27.70;36.10;;;;;;5017504;28;20640;-70
2022/08/08 09:00:14;;;;;;;3.30;0.60;;;27.90;35.80;;;;;;4997396;28;20602;-71
2022/08/08 09:02:40;;;;;;;2.85;0.50;;;28.10;35.50;;;;;;5017909;28;20037;-71
2022/08/08 09:05:06;;;;;;;1.13;0.40;;;28.30;35.20;;;;;;4984187;28;20129;-72
2022/08/08 09:07:35;;;;;;;3.67;0.60;;;28.50;34.90;;;;;;4977283;28;20596;-70
2022/08/08 09:10:01;;;;;;;1.35;0.50;;;28.60;34.40;;;;;;4995062;28;20049;-73
2022/08/08 09:12:27;;;;;;;1.63;0.63;;;28.70;34.20;;;;;;4999207;28;20040;-71
2022/08/08 09:14:56;;;;;;;0.70;0.30;;;28.80;33.70;;;;;;4993277;28;21249;-71
2022/08/08 09:17:25;;;;;;;2.15;0.50;;;29.00;33.70;;;;;;4992805;28;20037;-72
2022/08/08 09:19:55;;;;;;;0.63;0.50;;;29.20;33.50;;;;;;4963507;28;20045;-71
2022/08/08 09:22:21;;;;;;;1.73;0.50;;;29.40;33.00;;;;;;4994922;28;20199;-72
2022/08/08 09:24:48;;;;;;;1.67;0.45;;;29.60;32.90;;;;;;4982557;28;20516;-72
2022/08/08 09:27:13;;;;;;;1.58;0.70;;;29.70;32.50;;;;;;4994249;28;20431;-72
2022/08/08 09:30:07;;;;;;;0.52;0.38;;;29.80;32.10;;;;;;4981452;28;20045;-72
2022/08/08 09:32:45;;;;;;;0.30;0.30;;;29.80;30.90;;;;;;4973250;28;20490;-72
2022/08/08 09:35:12;;;;;;;2.38;0.60;;;29.90;31.40;;;;;;4963394;28;20036;-72
2022/08/08 09:37:52;;;;;;;5.03;0.80;;;30.10;31.40;;;;;;4983217;28;20049;-72
2022/08/08 09:40:19;;;;;;;1.13;0.40;;;30.20;30.80;;;;;;4991341;28;20116;-72
2022/08/08 09:42:46;;;;;;;2.08;0.57;;;30.40;31.10;;;;;;4992572;28;20080;-71
2022/08/08 09:45:17;;;;;;;0.52;0.40;;;30.60;30.90;;;;;;4992914;28;20048;-70
2022/08/08 09:47:43;;;;;;;;;;;30.80;30.70;;;;;;4991920;28;20042;-70
2022/08/08 09:50:16;;;;;;;0.73;0.50;;;31.00;30.70;;;;;;4982325;28;19964;-71
2022/08/08 09:52:45;;;;;;;1.65;0.40;;;31.20;30.60;;;;;;4976282;28;20076;-71
2022/08/08 09:55:10;;;;;;;2.72;0.60;;;31.40;30.50;;;;;;4979120;28;20064;-72
2022/08/08 09:57:37;;;;;;;0.88;0.40;;;31.60;30.00;;;;;;4996328;28;20415;-71
2022/08/08 10:00:08;;;;;;;0.47;0.30;;;31.80;29.90;;;;;;4989228;28;20040;-72
2022/08/08 10:02:36;;;;;;;2.42;0.50;;;31.90;29.40;;;;;;4974506;28;20029;-71
2022/08/08 10:05:16;;;;;;;1.77;0.40;;;32.00;29.30;;;;;;4983243;28;20049;-70
2022/08/08 10:07:50;;;;;;;0.77;0.25;;;32.10;29.00;;;;;;4998426;28;20140;-71
2022/08/08 10:10:28;;;;;;;4.95;0.88;;;32.30;28.80;;;;;;5001493;28;20041;-72
2022/08/08 10:12:54;;;;;;;0.52;0.40;;;32.60;28.60;;;;;;4994581;28;20569;-72
2022/08/08 10:15:20;;;;;;;1.88;0.45;;;32.70;28.60;;;;;;4975835;28;20049;-72
2022/08/08 10:17:47;;;;;;;1.65;0.35;;;32.90;28.30;;;;;;4995637;28;20159;-72
2022/08/08 10:20:12;;;;;;;1.17;0.50;;;33.00;28.00;;;;;;4986074;28;20088;-71
2022/08/08 10:23:10;;;;;;;1.77;0.50;;;33.10;27.90;;;;;;4979387;28;20682;-72
2022/08/08 10:25:35;;;;;;;1.50;0.40;;;33.20;27.70;;;;;;4968205;28;20084;-71
2022/08/08 10:28:01;;;;;;;1.77;0.43;;;33.20;27.60;;;;;;4986145;28;20045;-72
2022/08/08 10:30:26;;;;;;;2.60;0.57;;;33.20;27.50;;;;;;5012133;28;20045;-70
2022/08/08 10:32:58;;;;;;;1.63;0.43;;;33.20;27.30;;;;;;4996321;28;20045;-72
2022/08/08 10:35:25;;;;;;;1.67;0.50;;;33.30;27.00;;;;;;4963225;28;20196;-71
2022/08/08 10:37:59;;;;;;;2.05;0.30;;;33.40;27.00;;;;;;5003198;28;20044;-72
2022/08/08 10:40:26;;;;;;;3.85;0.50;;;33.50;26.90;;;;;;4967859;28;20069;-72
2022/08/08 10:43:10;;;;;;;1.45;0.30;;;33.70;27.00;;;;;;4999086;28;20049;-72
2022/08/08 10:45:45;;;;;;;1.70;0.70;;;33.90;26.70;;;;;;4996576;28;20521;-71
2022/08/08 10:48:11;;;;;;;3.60;0.45;;;34.10;26.60;;;;;;4989044;28;20060;-71
2022/08/08 10:50:37;;;;;;;1.08;0.43;;;34.10;26.70;;;;;;5008670;28;20034;-72
2022/08/08 10:53:03;;;;;;;2.10;0.38;;;34.20;26.60;;;;;;4988562;28;20030;-73
2022/08/08 10:55:29;;;;;;;2.22;0.55;;;34.40;26.50;;;;;;4957050;28;20046;-71
2022/08/08 10:58:02;;;;;;;0.63;0.45;;;34.50;26.40;;;;;;4996919;28;20477;-71
2022/08/08 11:00:28;;;;;;;0.82;0.30;;;34.60;26.20;;;;;;4959554;28;20100;-71
2022/08/08 11:02:54;;;;;;;2.33;0.50;;;34.70;26.20;;;;;;4977726;28;20076;-71
2022/08/08 11:05:19;;;;;;;2.22;0.50;;;34.80;26.10;;;;;;4977193;28;20045;-70
2022/08/08 11:07:52;;;;;;;0.85;0.30;;;34.90;26.00;;;;;;4987391;28;20049;-71
2022/08/08 11:10:19;;;;;;;0.57;0.40;;;35.10;25.90;;;;;;4970436;28;20676;-71
2022/08/08 11:12:46;;;;;;;1.27;0.17;;;35.20;25.90;;;;;;4971073;28;20069;-71
2022/08/08 11:15:15;;;;;;;1.67;0.60;;;35.40;25.90;;;;;;4969343;28;20042;-71
2022/08/08 11:17:41;;;;;;;0.75;0.45;;;35.50;25.60;;;;;;4987947;28;20052;-72
2022/08/08 11:20:08;;;;;;;2.05;0.43;;;35.60;25.50;;;;;;4994641;28;20038;-71
2022/08/08 11:22:33;;;;;;;0.85;0.43;;;35.70;25.30;;;;;;4998303;28;20060;-71
2022/08/08 11:25:01;;;;;;;0.70;0.40;;;35.90;25.30;;;;;;5004730;28;20057;-71
2022/08/08 11:27:31;;;;;;;0.95;0.55;;;36.00;25.20;;;;;;4988788;28;20085;-71
2022/08/08 11:29:57;;;;;;;3.42;0.52;;;36.10;24.80;;;;;;5013742;28;20043;-71
2022/08/08 11:32:27;;;;;;;1.85;0.43;;;36.20;24.80;;;;;;4968262;28;20141;-71
2022/08/08 11:34:55;;;;;;;0.85;0.30;;;36.20;24.50;;;;;;5006070;28;20068;-71
2022/08/08 11:37:21;;;;;;;0.73;0.50;;;36.30;24.50;;;;;;5010700;28;20819;-72
2022/08/08 11:39:47;;;;;;;0.63;0.38;;;36.40;24.50;;;;;;5007791;28;20036;-71
2022/08/08 11:42:12;;;;;;;2.33;0.43;;;36.40;24.50;;;;;;5021247;28;20034;-72
2022/08/08 11:44:38;;;;;;;0.70;0.30;;;36.40;24.40;;;;;;5017109;28;20434;-71
2022/08/08 11:47:03;;;;;;;0.70;0.40;;;36.40;24.20;;;;;;4998132;28;20025;-71
2022/08/08 11:49:29;;;;;;;2.28;0.75;;;36.40;24.10;;;;;;4988760;28;20787;-73
2022/08/08 11:51:54;;;;;;;2.70;0.43;;;36.40;24.20;;;;;;4993251;28;20037;-72
2022/08/08 11:54:33;;;;;;;0.40;0.40;;;36.40;24.20;;;;;;4989882;28;20772;-72
2022/08/08 11:57:12;;;;;;;2.35;0.30;;;36.40;23.90;;;;;;4995552;28;20100;-71
2022/08/08 11:59:46;;;;;;;1.95;0.32;;;36.50;23.90;;;;;;4985510;28;20038;-71
2022/08/08 12:02:12;;;;;;;0.80;0.30;;;36.60;23.90;;;;;;4989658;28;20069;-71
2022/08/08 12:04:37;;;;;;;0.95;0.60;;;36.80;24.00;;;;;;5003522;28;20053;-71
2022/08/08 12:07:06;;;;;;;1.80;0.52;;;36.90;23.90;;;;;;4999914;28;20434;-71
2022/08/08 12:09:31;;;;;;;1.63;0.50;;;37.00;23.60;;;;;;4992782;28;20091;-71
2022/08/08 12:11:57;;;;;;;0.73;0.40;;;37.10;23.60;;;;;;5015505;28;20101;-71
2022/08/08 12:14:23;;;;;;;0.88;0.52;;;37.20;23.60;;;;;;4963643;28;20434;-71
2022/08/08 12:16:52;;;;;;;1.05;0.30;;;37.20;23.40;;;;;;5011170;28;20041;-71
2022/08/08 12:19:19;;;;;;;0.50;0.47;;;37.40;23.50;;;;;;5014963;28;20040;-72
2022/08/08 12:21:44;;;;;;;1.40;0.40;;;37.60;23.40;;;;;;4994092;28;20642;-73
2022/08/08 12:24:16;;;;;;;0.75;0.43;;;37.70;23.20;;;;;;4998151;28;20067;-72
2022/08/08 12:26:46;;;;;;;0.75;0.30;;;37.80;23.10;;;;;;4999535;28;20053;-71
2022/08/08 12:29:30;;;;;;;0.50;0.30;;;37.90;23.10;;;;;;4993501;28;20470;-71
2022/08/08 12:32:01;;;;;;;0.93;0.45;;;37.90;22.80;;;;;;4988045;28;20038;-72
2022/08/08 12:34:38;;;;;;;0.52;0.30;;;38.00;22.90;;;;;;4993104;28;20561;-73
2022/08/08 12:37:04;;;;;;;0.43;0.43;;;38.00;22.70;;;;;;4966099;28;20614;-72
2022/08/08 12:39:30;;;;;;;0.43;0.30;;;38.10;22.90;;;;;;4985578;28;20052;-72
2022/08/08 12:41:59;;;;;;;2.30;0.30;;;38.20;22.80;;;;;;4998663;28;20754;-71
2022/08/08 12:44:28;;;;;;;0.30;0.30;;;38.20;22.50;;;;;;5015214;28;20091;-72
2022/08/08 12:46:57;;;;;;;1.42;0.40;;;38.20;22.40;;;;;;5013742;28;20037;-71
2022/08/08 12:49:29;;;;;;;1.45;0.30;;;38.20;22.40;;;;;;4996093;28;20026;-72
2022/08/08 12:51:55;;;;;;;0.80;0.40;;;38.30;22.40;;;;;;5014293;28;20099;-73
2022/08/08 12:54:25;;;;;;;1.25;0.40;;;38.40;22.40;;;;;;5024102;28;20808;-72
2022/08/08 12:56:50;;;;;;;0.50;0.50;;;38.40;22.40;;;;;;5017802;28;20047;-72
2022/08/08 12:59:26;;;;;;;1.08;0.30;;;38.50;22.40;;;;;;5001241;28;20075;-72
2022/08/08 13:01:59;;;;;;;0.40;0.35;;;38.60;22.40;;;;;;5018798;28;20041;-73
2022/08/08 13:04:29;;;;;;;1.27;0.43;;;38.60;22.30;;;;;;5002857;28;20064;-72
2022/08/08 13:06:57;;;;;;;1.17;0.60;;;38.70;22.40;;;;;;5001252;28;20038;-73
2022/08/08 13:09:40;;;;;;;0.70;0.50;;;38.80;22.30;;;;;;5020115;28;20028;-73
2022/08/08 13:12:26;;;;;;;3.25;0.50;;;38.90;22.10;;;;;;4993643;28;20122;-74
2022/08/08 13:14:53;;;;;;;2.30;0.30;;;39.00;21.80;;;;;;4961841;28;20030;-72
2022/08/08 13:17:24;;;;;;;6.22;0.50;;;39.10;22.10;;;;;;4979866;28;20038;-72